sensor_id;sensor_type;location;lat;lon;timestamp;temperature;humidity
19039;DHT22;9652;49.014;12.052;2022-07-23T00:01:21;25.60;50.00
19039;DHT22;9652;49.014;12.052;2022-07-23T00:03:51;25.60;50.00
19039;DHT22;9652;49.014;12.052;2022-07-23T00:06:19;25.60;50.20
19039;DHT22;9652;49.014;12.052;2022-07-23T00:08:47;25.60;50.10
19039;DHT22;9652;49.014;12.052;2022-07-23T00:11:14;25.60;50.30
19039;DHT22;9652;49.014;12.052;2022-07-23T00:13:42;25.50;50.30
19039;DHT22;9652;49.014;12.052;2022-07-23T00:16:09;25.50;50.40
19039;DHT22;9652;49.014;12.052;2022-07-23T00:18:36;25.50;50.50
19039;DHT22;9652;49.014;12.052;2022-07-23T00:21:05;25.50;50.50
19039;DHT22;9652;49.014;12.052;2022-07-23T00:23:32;25.50;50.50
19039;DHT22;9652;49.014;12.052;2022-07-23T00:25:59;25.50;50.50
19039;DHT22;9652;49.014;12.052;2022-07-23T00:28:26;25.50;50.60
19039;DHT22;9652;49.014;12.052;2022-07-23T00:30:53;25.50;50.70
19039;DHT22;9652;49.014;12.052;2022-07-23T00:33:20;25.50;50.80
19039;DHT22;9652;49.014;12.052;2022-07-23T00:35:47;25.50;51.30
19039;DHT22;9652;49.014;12.052;2022-07-23T00:38:15;25.50;50.70
19039;DHT22;9652;49.014;12.052;2022-07-23T00:40:42;25.50;50.80
19039;DHT22;9652;49.014;12.052;2022-07-23T00:43:10;25.50;50.90
19039;DHT22;9652;49.014;12.052;2022-07-23T00:45:37;25.50;50.90
19039;DHT22;9652;49.014;12.052;2022-07-23T00:48:05;25.50;51.00
19039;DHT22;9652;49.014;12.052;2022-07-23T00:50:33;25.40;51.00
19039;DHT22;9652;49.014;12.052;2022-07-23T00:53:00;25.40;51.00
19039;DHT22;9652;49.014;12.052;2022-07-23T00:55:28;25.40;51.10
19039;DHT22;9652;49.014;12.052;2022-07-23T00:57:56;25.30;51.10
19039;DHT22;9652;49.014;12.052;2022-07-23T01:00:24;25.30;51.10
19039;DHT22;9652;49.014;12.052;2022-07-23T01:02:51;25.30;51.20
19039;DHT22;9652;49.014;12.052;2022-07-23T01:05:19;25.30;51.30
19039;DHT22;9652;49.014;12.052;2022-07-23T01:07:48;25.20;51.30
19039;DHT22;9652;49.014;12.052;2022-07-23T01:10:15;25.20;51.40
19039;DHT22;9652;49.014;12.052;2022-07-23T01:12:59;25.20;51.40
19039;DHT22;9652;49.014;12.052;2022-07-23T01:15:28;25.20;51.50
19039;DHT22;9652;49.014;12.052;2022-07-23T01:17:56;25.10;51.50
19039;DHT22;9652;49.014;12.052;2022-07-23T01:20:23;25.10;51.60
19039;DHT22;9652;49.014;12.052;2022-07-23T01:22:53;25.10;51.80
19039;DHT22;9652;49.014;12.052;2022-07-23T01:25:20;25.10;52.00
19039;DHT22;9652;49.014;12.052;2022-07-23T01:27:57;25.00;52.10
19039;DHT22;9652;49.014;12.052;2022-07-23T01:30:24;25.00;52.10
19039;DHT22;9652;49.014;12.052;2022-07-23T01:32:53;25.00;52.10
19039;DHT22;9652;49.014;12.052;2022-07-23T01:35:20;25.00;52.20
19039;DHT22;9652;49.014;12.052;2022-07-23T01:37:48;25.00;52.10
19039;DHT22;9652;49.014;12.052;2022-07-23T01:40:18;25.00;52.10
19039;DHT22;9652;49.014;12.052;2022-07-23T01:42:46;25.00;52.20
19039;DHT22;9652;49.014;12.052;2022-07-23T01:45:14;25.00;52.70
19039;DHT22;9652;49.014;12.052;2022-07-23T01:47:46;25.10;52.10
19039;DHT22;9652;49.014;12.052;2022-07-23T01:50:14;25.00;52.20
19039;DHT22;9652;49.014;12.052;2022-07-23T01:53:01;25.10;52.30
19039;DHT22;9652;49.014;12.052;2022-07-23T01:55:30;25.10;52.30
19039;DHT22;9652;49.014;12.052;2022-07-23T01:57:57;25.10;52.30
19039;DHT22;9652;49.014;12.052;2022-07-23T02:00:28;25.20;52.40
19039;DHT22;9652;49.014;12.052;2022-07-23T02:02:55;25.10;52.30
19039;DHT22;9652;49.014;12.052;2022-07-23T02:05:24;25.10;52.30
19039;DHT22;9652;49.014;12.052;2022-07-23T02:07:51;25.20;52.40
19039;DHT22;9652;49.014;12.052;2022-07-23T02:10:20;25.20;52.50
19039;DHT22;9652;49.014;12.052;2022-07-23T02:12:49;25.20;52.50
19039;DHT22;9652;49.014;12.052;2022-07-23T02:15:16;25.20;52.40
19039;DHT22;9652;49.014;12.052;2022-07-23T02:17:43;25.30;52.30
19039;DHT22;9652;49.014;12.052;2022-07-23T02:20:11;25.30;52.30
19039;DHT22;9652;49.014;12.052;2022-07-23T02:22:38;25.30;52.30
19039;DHT22;9652;49.014;12.052;2022-07-23T02:25:07;25.30;52.30
19039;DHT22;9652;49.014;12.052;2022-07-23T02:27:35;25.30;52.20
19039;DHT22;9652;49.014;12.052;2022-07-23T02:30:07;25.40;52.20
19039;DHT22;9652;49.014;12.052;2022-07-23T02:32:35;25.40;52.00
19039;DHT22;9652;49.014;12.052;2022-07-23T02:35:03;25.40;51.70
19039;DHT22;9652;49.014;12.052;2022-07-23T02:37:31;25.40;51.60
19039;DHT22;9652;49.014;12.052;2022-07-23T02:39:59;25.40;51.80
19039;DHT22;9652;49.014;12.052;2022-07-23T02:42:26;25.50;51.80
19039;DHT22;9652;49.014;12.052;2022-07-23T02:44:53;25.50;51.70
19039;DHT22;9652;49.014;12.052;2022-07-23T02:47:22;25.50;51.70
19039;DHT22;9652;49.014;12.052;2022-07-23T02:49:49;25.50;51.80
19039;DHT22;9652;49.014;12.052;2022-07-23T02:52:17;25.50;51.70
19039;DHT22;9652;49.014;12.052;2022-07-23T02:54:44;25.50;51.70
19039;DHT22;9652;49.014;12.052;2022-07-23T02:57:14;25.60;51.70
19039;DHT22;9652;49.014;12.052;2022-07-23T02:59:42;25.50;51.70
19039;DHT22;9652;49.014;12.052;2022-07-23T03:02:09;25.50;51.70
19039;DHT22;9652;49.014;12.052;2022-07-23T03:04:38;25.50;51.80
19039;DHT22;9652;49.014;12.052;2022-07-23T03:07:08;25.50;52.10
19039;DHT22;9652;49.014;12.052;2022-07-23T03:09:35;25.40;52.00
19039;DHT22;9652;49.014;12.052;2022-07-23T03:12:02;25.30;52.40
19039;DHT22;9652;49.014;12.052;2022-07-23T03:14:30;25.20;52.60
19039;DHT22;9652;49.014;12.052;2022-07-23T03:16:57;25.10;52.70
19039;DHT22;9652;49.014;12.052;2022-07-23T03:19:25;25.00;53.10
19039;DHT22;9652;49.014;12.052;2022-07-23T03:21:54;24.80;53.40
19039;DHT22;9652;49.014;12.052;2022-07-23T03:24:21;24.70;53.90
19039;DHT22;9652;49.014;12.052;2022-07-23T03:26:49;24.60;54.70
19039;DHT22;9652;49.014;12.052;2022-07-23T03:29:16;24.50;55.50
19039;DHT22;9652;49.014;12.052;2022-07-23T03:31:43;24.30;56.20
19039;DHT22;9652;49.014;12.052;2022-07-23T03:34:11;24.20;57.10
19039;DHT22;9652;49.014;12.052;2022-07-23T03:36:38;24.10;57.80
19039;DHT22;9652;49.014;12.052;2022-07-23T03:39:07;23.90;58.50
19039;DHT22;9652;49.014;12.052;2022-07-23T03:41:34;23.80;58.90
19039;DHT22;9652;49.014;12.052;2022-07-23T03:44:01;23.70;59.10
19039;DHT22;9652;49.014;12.052;2022-07-23T03:46:28;23.60;59.30
19039;DHT22;9652;49.014;12.052;2022-07-23T03:48:55;23.50;59.50
19039;DHT22;9652;49.014;12.052;2022-07-23T03:51:22;23.40;59.70
19039;DHT22;9652;49.014;12.052;2022-07-23T03:53:49;23.30;59.90
19039;DHT22;9652;49.014;12.052;2022-07-23T03:56:17;23.20;60.00
19039;DHT22;9652;49.014;12.052;2022-07-23T03:58:44;23.20;60.70
19039;DHT22;9652;49.014;12.052;2022-07-23T04:01:12;23.10;61.00
19039;DHT22;9652;49.014;12.052;2022-07-23T04:03:39;23.10;61.30
19039;DHT22;9652;49.014;12.052;2022-07-23T04:06:06;23.10;61.50
19039;DHT22;9652;49.014;12.052;2022-07-23T04:08:35;23.10;61.40
19039;DHT22;9652;49.014;12.052;2022-07-23T04:11:03;23.10;61.30
19039;DHT22;9652;49.014;12.052;2022-07-23T04:13:31;23.10;61.10
19039;DHT22;9652;49.014;12.052;2022-07-23T04:16:00;23.10;61.00
19039;DHT22;9652;49.014;12.052;2022-07-23T04:18:28;23.10;60.80
19039;DHT22;9652;49.014;12.052;2022-07-23T04:21:07;23.10;60.80
19039;DHT22;9652;49.014;12.052;2022-07-23T04:23:35;23.10;60.60
19039;DHT22;9652;49.014;12.052;2022-07-23T04:26:02;23.10;60.70
19039;DHT22;9652;49.014;12.052;2022-07-23T04:28:32;23.10;60.10
19039;DHT22;9652;49.014;12.052;2022-07-23T04:31:01;23.10;60.10
19039;DHT22;9652;49.014;12.052;2022-07-23T04:33:29;23.20;60.30
19039;DHT22;9652;49.014;12.052;2022-07-23T04:35:59;23.20;60.50
19039;DHT22;9652;49.014;12.052;2022-07-23T04:38:26;23.20;60.60
19039;DHT22;9652;49.014;12.052;2022-07-23T04:40:58;23.20;60.50
19039;DHT22;9652;49.014;12.052;2022-07-23T04:43:26;23.30;60.50
19039;DHT22;9652;49.014;12.052;2022-07-23T04:45:55;23.30;60.30
19039;DHT22;9652;49.014;12.052;2022-07-23T04:48:22;23.40;60.50
19039;DHT22;9652;49.014;12.052;2022-07-23T04:50:57;23.40;60.20
19039;DHT22;9652;49.014;12.052;2022-07-23T04:53:27;23.40;60.90
19039;DHT22;9652;49.014;12.052;2022-07-23T04:55:59;23.50;60.10
19039;DHT22;9652;49.014;12.052;2022-07-23T04:58:26;23.50;60.00
19039;DHT22;9652;49.014;12.052;2022-07-23T05:00:54;23.60;60.00
19039;DHT22;9652;49.014;12.052;2022-07-23T05:03:23;23.60;60.30
19039;DHT22;9652;49.014;12.052;2022-07-23T05:05:50;23.70;59.80
19039;DHT22;9652;49.014;12.052;2022-07-23T05:08:18;23.80;59.70
19039;DHT22;9652;49.014;12.052;2022-07-23T05:10:49;23.80;59.50
19039;DHT22;9652;49.014;12.052;2022-07-23T05:13:18;23.80;59.40
19039;DHT22;9652;49.014;12.052;2022-07-23T05:15:45;23.90;59.50
19039;DHT22;9652;49.014;12.052;2022-07-23T05:18:14;23.90;59.40
19039;DHT22;9652;49.014;12.052;2022-07-23T05:20:42;24.00;59.30
19039;DHT22;9652;49.014;12.052;2022-07-23T05:23:12;24.00;59.00
19039;DHT22;9652;49.014;12.052;2022-07-23T05:25:40;24.10;59.00
19039;DHT22;9652;49.014;12.052;2022-07-23T05:28:08;24.10;58.70
19039;DHT22;9652;49.014;12.052;2022-07-23T05:30:35;24.20;58.70
19039;DHT22;9652;49.014;12.052;2022-07-23T05:33:06;24.20;58.70
19039;DHT22;9652;49.014;12.052;2022-07-23T05:35:35;24.30;58.70
19039;DHT22;9652;49.014;12.052;2022-07-23T05:38:15;24.30;58.50
19039;DHT22;9652;49.014;12.052;2022-07-23T05:40:42;24.40;58.40
19039;DHT22;9652;49.014;12.052;2022-07-23T05:43:09;24.40;58.30
19039;DHT22;9652;49.014;12.052;2022-07-23T05:45:36;24.40;58.20
19039;DHT22;9652;49.014;12.052;2022-07-23T05:48:04;24.50;58.20
19039;DHT22;9652;49.014;12.052;2022-07-23T05:50:39;24.50;58.30
19039;DHT22;9652;49.014;12.052;2022-07-23T05:53:14;24.60;58.30
19039;DHT22;9652;49.014;12.052;2022-07-23T05:56:03;24.70;58.40
19039;DHT22;9652;49.014;12.052;2022-07-23T05:58:31;24.70;58.40
19039;DHT22;9652;49.014;12.052;2022-07-23T06:00:58;24.80;58.40
19039;DHT22;9652;49.014;12.052;2022-07-23T06:03:28;24.90;58.20
19039;DHT22;9652;49.014;12.052;2022-07-23T06:05:57;25.00;58.10
19039;DHT22;9652;49.014;12.052;2022-07-23T06:08:24;25.10;58.00
19039;DHT22;9652;49.014;12.052;2022-07-23T06:10:52;25.10;57.70
19039;DHT22;9652;49.014;12.052;2022-07-23T06:13:19;25.30;58.40
19039;DHT22;9652;49.014;12.052;2022-07-23T06:15:46;25.30;57.60
19039;DHT22;9652;49.014;12.052;2022-07-23T06:18:14;25.40;57.50
19039;DHT22;9652;49.014;12.052;2022-07-23T06:20:41;25.50;57.40
19039;DHT22;9652;49.014;12.052;2022-07-23T06:23:09;25.60;57.30
19039;DHT22;9652;49.014;12.052;2022-07-23T06:25:37;25.70;57.00
19039;DHT22;9652;49.014;12.052;2022-07-23T06:28:05;25.80;56.80
19039;DHT22;9652;49.014;12.052;2022-07-23T06:30:32;25.90;56.50
19039;DHT22;9652;49.014;12.052;2022-07-23T06:32:59;25.90;56.30
19039;DHT22;9652;49.014;12.052;2022-07-23T06:35:28;25.90;56.20
19039;DHT22;9652;49.014;12.052;2022-07-23T06:37:55;26.00;56.00
19039;DHT22;9652;49.014;12.052;2022-07-23T06:40:24;26.00;55.90
19039;DHT22;9652;49.014;12.052;2022-07-23T06:42:51;26.10;55.90
19039;DHT22;9652;49.014;12.052;2022-07-23T06:45:22;26.00;55.60
19039;DHT22;9652;49.014;12.052;2022-07-23T06:47:49;26.10;55.50
19039;DHT22;9652;49.014;12.052;2022-07-23T06:50:16;26.10;55.40
19039;DHT22;9652;49.014;12.052;2022-07-23T06:52:43;26.20;55.40
19039;DHT22;9652;49.014;12.052;2022-07-23T06:55:10;26.20;55.50
19039;DHT22;9652;49.014;12.052;2022-07-23T06:57:39;26.30;55.60
19039;DHT22;9652;49.014;12.052;2022-07-23T07:00:07;26.40;55.70
19039;DHT22;9652;49.014;12.052;2022-07-23T07:02:35;26.50;55.90
19039;DHT22;9652;49.014;12.052;2022-07-23T07:05:02;26.80;55.90
19039;DHT22;9652;49.014;12.052;2022-07-23T07:07:30;26.90;55.50
19039;DHT22;9652;49.014;12.052;2022-07-23T07:09:57;27.00;55.20
19039;DHT22;9652;49.014;12.052;2022-07-23T07:12:24;27.10;54.80
19039;DHT22;9652;49.014;12.052;2022-07-23T07:14:52;27.20;54.40
19039;DHT22;9652;49.014;12.052;2022-07-23T07:17:20;27.30;54.00
19039;DHT22;9652;49.014;12.052;2022-07-23T07:19:47;27.30;53.80
19039;DHT22;9652;49.014;12.052;2022-07-23T07:22:14;27.30;53.70
19039;DHT22;9652;49.014;12.052;2022-07-23T07:24:41;27.30;53.60
19039;DHT22;9652;49.014;12.052;2022-07-23T07:27:08;27.40;53.50
19039;DHT22;9652;49.014;12.052;2022-07-23T07:29:35;27.40;53.30
19039;DHT22;9652;49.014;12.052;2022-07-23T07:32:05;27.40;53.10
19039;DHT22;9652;49.014;12.052;2022-07-23T07:34:32;27.40;52.60
19039;DHT22;9652;49.014;12.052;2022-07-23T07:36:59;27.40;52.70
19039;DHT22;9652;49.014;12.052;2022-07-23T07:39:26;27.40;52.50
19039;DHT22;9652;49.014;12.052;2022-07-23T07:41:53;27.40;52.50
19039;DHT22;9652;49.014;12.052;2022-07-23T07:44:20;27.40;52.10
19039;DHT22;9652;49.014;12.052;2022-07-23T07:46:47;27.50;52.40
19039;DHT22;9652;49.014;12.052;2022-07-23T07:49:16;27.50;52.20
19039;DHT22;9652;49.014;12.052;2022-07-23T07:51:45;27.60;52.10
19039;DHT22;9652;49.014;12.052;2022-07-23T07:54:12;27.70;52.40
19039;DHT22;9652;49.014;12.052;2022-07-23T07:56:39;27.80;52.30
19039;DHT22;9652;49.014;12.052;2022-07-23T07:59:06;27.90;52.00
19039;DHT22;9652;49.014;12.052;2022-07-23T08:01:33;28.00;51.90
19039;DHT22;9652;49.014;12.052;2022-07-23T08:04:00;28.10;51.60
19039;DHT22;9652;49.014;12.052;2022-07-23T08:06:29;28.20;51.30
19039;DHT22;9652;49.014;12.052;2022-07-23T08:08:56;28.30;51.00
19039;DHT22;9652;49.014;12.052;2022-07-23T08:11:23;28.40;50.80
19039;DHT22;9652;49.014;12.052;2022-07-23T08:13:49;28.50;50.60
19039;DHT22;9652;49.014;12.052;2022-07-23T08:16:16;28.50;50.30
19039;DHT22;9652;49.014;12.052;2022-07-23T08:18:43;28.60;50.30
19039;DHT22;9652;49.014;12.052;2022-07-23T08:21:10;28.60;50.10
19039;DHT22;9652;49.014;12.052;2022-07-23T08:23:39;28.70;50.10
19039;DHT22;9652;49.014;12.052;2022-07-23T08:26:06;28.80;50.10
19039;DHT22;9652;49.014;12.052;2022-07-23T08:28:33;28.90;49.80
19039;DHT22;9652;49.014;12.052;2022-07-23T08:31:00;29.10;49.70
19039;DHT22;9652;49.014;12.052;2022-07-23T08:33:27;29.20;49.60
19039;DHT22;9652;49.014;12.052;2022-07-23T08:35:55;29.30;49.40
19039;DHT22;9652;49.014;12.052;2022-07-23T08:38:22;29.40;49.20
19039;DHT22;9652;49.014;12.052;2022-07-23T08:40:53;29.50;49.20
19039;DHT22;9652;49.014;12.052;2022-07-23T08:43:25;29.60;48.80
19039;DHT22;9652;49.014;12.052;2022-07-23T08:45:55;29.70;48.70
19039;DHT22;9652;49.014;12.052;2022-07-23T08:48:25;29.80;48.30
19039;DHT22;9652;49.014;12.052;2022-07-23T08:50:57;29.80;48.20
19039;DHT22;9652;49.014;12.052;2022-07-23T08:53:26;29.90;48.00
19039;DHT22;9652;49.014;12.052;2022-07-23T08:55:56;29.90;48.10
19039;DHT22;9652;49.014;12.052;2022-07-23T08:58:25;30.00;47.90
19039;DHT22;9652;49.014;12.052;2022-07-23T09:00:52;30.10;48.10
19039;DHT22;9652;49.014;12.052;2022-07-23T09:03:21;30.20;48.00
19039;DHT22;9652;49.014;12.052;2022-07-23T09:05:50;30.40;48.00
19039;DHT22;9652;49.014;12.052;2022-07-23T09:08:19;30.50;47.80
19039;DHT22;9652;49.014;12.052;2022-07-23T09:10:51;30.60;47.60
19039;DHT22;9652;49.014;12.052;2022-07-23T09:13:31;30.80;47.30
19039;DHT22;9652;49.014;12.052;2022-07-23T09:16:04;31.00;46.70
19039;DHT22;9652;49.014;12.052;2022-07-23T09:18:36;31.10;47.10
19039;DHT22;9652;49.014;12.052;2022-07-23T09:21:09;31.30;46.80
19039;DHT22;9652;49.014;12.052;2022-07-23T09:23:43;31.40;46.80
19039;DHT22;9652;49.014;12.052;2022-07-23T09:26:18;31.50;46.40
19039;DHT22;9652;49.014;12.052;2022-07-23T09:28:54;31.50;45.70
19039;DHT22;9652;49.014;12.052;2022-07-23T09:31:24;31.50;45.40
19039;DHT22;9652;49.014;12.052;2022-07-23T09:33:51;31.60;45.80
19039;DHT22;9652;49.014;12.052;2022-07-23T09:36:34;31.60;45.60
19039;DHT22;9652;49.014;12.052;2022-07-23T09:39:01;31.60;45.70
19039;DHT22;9652;49.014;12.052;2022-07-23T09:41:34;31.50;45.50
19039;DHT22;9652;49.014;12.052;2022-07-23T09:44:13;31.50;45.10
19039;DHT22;9652;49.014;12.052;2022-07-23T09:46:43;31.40;44.90
19039;DHT22;9652;49.014;12.052;2022-07-23T09:49:16;31.40;45.10
19039;DHT22;9652;49.014;12.052;2022-07-23T09:51:46;31.30;45.10
19039;DHT22;9652;49.014;12.052;2022-07-23T09:54:39;31.30;45.30
19039;DHT22;9652;49.014;12.052;2022-07-23T09:57:08;31.30;45.20
19039;DHT22;9652;49.014;12.052;2022-07-23T09:59:44;31.30;45.90
19039;DHT22;9652;49.014;12.052;2022-07-23T10:02:13;31.40;46.10
19039;DHT22;9652;49.014;12.052;2022-07-23T10:05:00;31.50;46.20
19039;DHT22;9652;49.014;12.052;2022-07-23T10:07:50;31.60;46.60
19039;DHT22;9652;49.014;12.052;2022-07-23T10:10:36;31.80;45.90
19039;DHT22;9652;49.014;12.052;2022-07-23T10:13:20;32.00;45.80
19039;DHT22;9652;49.014;12.052;2022-07-23T10:16:05;32.10;45.50
19039;DHT22;9652;49.014;12.052;2022-07-23T10:18:34;32.20;45.30
19039;DHT22;9652;49.014;12.052;2022-07-23T10:21:06;32.40;45.40
19039;DHT22;9652;49.014;12.052;2022-07-23T10:23:39;32.50;44.90
19039;DHT22;9652;49.014;12.052;2022-07-23T10:26:19;32.60;44.80
19039;DHT22;9652;49.014;12.052;2022-07-23T10:29:02;32.70;44.30
19039;DHT22;9652;49.014;12.052;2022-07-23T10:31:50;32.80;43.90
19039;DHT22;9652;49.014;12.052;2022-07-23T10:34:30;32.90;43.80
19039;DHT22;9652;49.014;12.052;2022-07-23T10:37:07;32.90;43.80
19039;DHT22;9652;49.014;12.052;2022-07-23T10:39:42;33.00;43.70
19039;DHT22;9652;49.014;12.052;2022-07-23T10:42:10;33.00;43.50
19039;DHT22;9652;49.014;12.052;2022-07-23T10:44:40;33.10;43.30
19039;DHT22;9652;49.014;12.052;2022-07-23T10:47:11;33.10;43.30
19039;DHT22;9652;49.014;12.052;2022-07-23T10:50:17;33.10;43.40
19039;DHT22;9652;49.014;12.052;2022-07-23T10:53:13;33.20;43.10
19039;DHT22;9652;49.014;12.052;2022-07-23T10:55:45;33.30;43.20
19039;DHT22;9652;49.014;12.052;2022-07-23T10:58:20;33.40;43.50
19039;DHT22;9652;49.014;12.052;2022-07-23T11:00:49;33.50;43.40
19039;DHT22;9652;49.014;12.052;2022-07-23T11:03:33;33.80;43.70
19039;DHT22;9652;49.014;12.052;2022-07-23T11:06:04;33.80;42.70
19039;DHT22;9652;49.014;12.052;2022-07-23T11:08:32;34.10;43.20
19039;DHT22;9652;49.014;12.052;2022-07-23T11:11:10;34.10;42.50
19039;DHT22;9652;49.014;12.052;2022-07-23T11:13:46;34.20;41.20
19039;DHT22;9652;49.014;12.052;2022-07-23T11:16:16;34.20;41.60
19039;DHT22;9652;49.014;12.052;2022-07-23T11:19:06;34.30;41.30
19039;DHT22;9652;49.014;12.052;2022-07-23T11:21:42;34.20;40.80
19039;DHT22;9652;49.014;12.052;2022-07-23T11:24:11;34.10;41.30
19039;DHT22;9652;49.014;12.052;2022-07-23T11:26:45;33.90;44.00
19039;DHT22;9652;49.014;12.052;2022-07-23T11:29:41;33.40;48.90
19039;DHT22;9652;49.014;12.052;2022-07-23T11:32:21;32.70;50.90
19039;DHT22;9652;49.014;12.052;2022-07-23T11:35:02;31.80;50.80
19039;DHT22;9652;49.014;12.052;2022-07-23T11:37:44;30.80;51.80
19039;DHT22;9652;49.014;12.052;2022-07-23T11:40:14;30.00;53.90
19039;DHT22;9652;49.014;12.052;2022-07-23T11:42:53;29.40;55.70
19039;DHT22;9652;49.014;12.052;2022-07-23T11:45:22;28.80;57.70
19039;DHT22;9652;49.014;12.052;2022-07-23T11:47:51;28.60;58.90
19039;DHT22;9652;49.014;12.052;2022-07-23T11:50:23;28.30;60.10
19039;DHT22;9652;49.014;12.052;2022-07-23T11:52:51;28.10;62.10
19039;DHT22;9652;49.014;12.052;2022-07-23T11:55:18;28.00;63.10
19039;DHT22;9652;49.014;12.052;2022-07-23T11:57:46;28.00;64.20
19039;DHT22;9652;49.014;12.052;2022-07-23T12:00:16;27.90;65.20
19039;DHT22;9652;49.014;12.052;2022-07-23T12:02:46;27.90;66.20
19039;DHT22;9652;49.014;12.052;2022-07-23T12:05:17;27.90;66.90
19039;DHT22;9652;49.014;12.052;2022-07-23T12:07:48;27.90;67.70
19039;DHT22;9652;49.014;12.052;2022-07-23T12:10:18;27.90;68.50
19039;DHT22;9652;49.014;12.052;2022-07-23T12:12:48;28.00;69.30
19039;DHT22;9652;49.014;12.052;2022-07-23T12:15:17;28.00;70.10
19039;DHT22;9652;49.014;12.052;2022-07-23T12:17:48;28.00;70.60
19039;DHT22;9652;49.014;12.052;2022-07-23T12:20:20;28.10;71.70
19039;DHT22;9652;49.014;12.052;2022-07-23T12:22:49;28.10;73.30
19039;DHT22;9652;49.014;12.052;2022-07-23T12:25:21;28.20;73.30
19039;DHT22;9652;49.014;12.052;2022-07-23T12:27:59;28.30;73.50
19039;DHT22;9652;49.014;12.052;2022-07-23T12:30:31;28.40;74.20
19039;DHT22;9652;49.014;12.052;2022-07-23T12:33:00;28.40;73.00
19039;DHT22;9652;49.014;12.052;2022-07-23T12:35:34;28.40;73.30
19039;DHT22;9652;49.014;12.052;2022-07-23T12:38:05;28.40;74.40
19039;DHT22;9652;49.014;12.052;2022-07-23T12:40:35;28.50;74.00
19039;DHT22;9652;49.014;12.052;2022-07-23T12:43:05;28.50;74.20
19039;DHT22;9652;49.014;12.052;2022-07-23T12:45:46;28.60;74.40
19039;DHT22;9652;49.014;12.052;2022-07-23T12:48:20;28.60;74.90
19039;DHT22;9652;49.014;12.052;2022-07-23T12:50:52;28.60;74.90
19039;DHT22;9652;49.014;12.052;2022-07-23T12:53:26;28.60;75.70
19039;DHT22;9652;49.014;12.052;2022-07-23T12:56:03;28.70;76.30
19039;DHT22;9652;49.014;12.052;2022-07-23T12:58:43;28.80;76.60
19039;DHT22;9652;49.014;12.052;2022-07-23T13:01:23;28.90;76.80
19039;DHT22;9652;49.014;12.052;2022-07-23T13:03:57;29.00;76.50
19039;DHT22;9652;49.014;12.052;2022-07-23T13:06:29;29.10;76.80
19039;DHT22;9652;49.014;12.052;2022-07-23T13:08:57;29.10;77.30
19039;DHT22;9652;49.014;12.052;2022-07-23T13:11:25;29.30;78.30
19039;DHT22;9652;49.014;12.052;2022-07-23T13:13:52;29.40;78.80
19039;DHT22;9652;49.014;12.052;2022-07-23T13:16:19;29.50;78.30
19039;DHT22;9652;49.014;12.052;2022-07-23T13:18:46;29.60;77.40
19039;DHT22;9652;49.014;12.052;2022-07-23T13:21:13;29.60;76.90
19039;DHT22;9652;49.014;12.052;2022-07-23T13:23:43;29.70;76.70
19039;DHT22;9652;49.014;12.052;2022-07-23T13:26:10;29.70;77.70
19039;DHT22;9652;49.014;12.052;2022-07-23T13:28:37;29.80;79.10
19039;DHT22;9652;49.014;12.052;2022-07-23T13:31:04;30.00;80.40
19039;DHT22;9652;49.014;12.052;2022-07-23T13:33:31;30.20;81.30
19039;DHT22;9652;49.014;12.052;2022-07-23T13:35:58;30.40;81.40
19039;DHT22;9652;49.014;12.052;2022-07-23T13:38:26;30.60;81.90
19039;DHT22;9652;49.014;12.052;2022-07-23T13:40:55;30.80;83.00
19039;DHT22;9652;49.014;12.052;2022-07-23T13:43:24;31.10;84.30
19039;DHT22;9652;49.014;12.052;2022-07-23T13:45:52;31.50;85.50
19039;DHT22;9652;49.014;12.052;2022-07-23T13:48:20;31.80;86.10
19039;DHT22;9652;49.014;12.052;2022-07-23T13:50:48;32.20;86.30
19039;DHT22;9652;49.014;12.052;2022-07-23T13:53:18;32.60;85.40
19039;DHT22;9652;49.014;12.052;2022-07-23T13:55:47;32.90;82.70
19039;DHT22;9652;49.014;12.052;2022-07-23T13:58:17;33.10;79.40
19039;DHT22;9652;49.014;12.052;2022-07-23T14:00:46;33.30;77.40
19039;DHT22;9652;49.014;12.052;2022-07-23T14:03:14;33.30;76.00
19039;DHT22;9652;49.014;12.052;2022-07-23T14:05:42;33.30;74.10
19039;DHT22;9652;49.014;12.052;2022-07-23T14:08:09;33.20;72.90
19039;DHT22;9652;49.014;12.052;2022-07-23T14:10:36;33.10;71.10
19039;DHT22;9652;49.014;12.052;2022-07-23T14:13:03;32.90;71.10
19039;DHT22;9652;49.014;12.052;2022-07-23T14:15:32;32.70;71.20
19039;DHT22;9652;49.014;12.052;2022-07-23T14:18:00;32.50;72.00
19039;DHT22;9652;49.014;12.052;2022-07-23T14:20:27;32.40;72.10
19039;DHT22;9652;49.014;12.052;2022-07-23T14:22:54;32.40;72.60
19039;DHT22;9652;49.014;12.052;2022-07-23T14:25:23;32.30;73.70
19039;DHT22;9652;49.014;12.052;2022-07-23T14:27:50;32.20;74.90
19039;DHT22;9652;49.014;12.052;2022-07-23T14:30:17;32.20;76.80
19039;DHT22;9652;49.014;12.052;2022-07-23T14:32:45;32.30;78.80
19039;DHT22;9652;49.014;12.052;2022-07-23T14:35:12;32.50;78.60
19039;DHT22;9652;49.014;12.052;2022-07-23T14:37:39;32.80;76.90
19039;DHT22;9652;49.014;12.052;2022-07-23T14:40:07;32.90;75.10
19039;DHT22;9652;49.014;12.052;2022-07-23T14:42:34;33.00;73.60
19039;DHT22;9652;49.014;12.052;2022-07-23T14:45:02;33.10;71.50
19039;DHT22;9652;49.014;12.052;2022-07-23T14:47:30;33.00;71.70
19039;DHT22;9652;49.014;12.052;2022-07-23T14:49:59;33.10;72.20
19039;DHT22;9652;49.014;12.052;2022-07-23T14:52:26;33.10;70.70
19039;DHT22;9652;49.014;12.052;2022-07-23T14:54:53;33.20;70.70
19039;DHT22;9652;49.014;12.052;2022-07-23T14:57:20;33.20;69.60
19039;DHT22;9652;49.014;12.052;2022-07-23T14:59:47;33.20;67.40
19039;DHT22;9652;49.014;12.052;2022-07-23T15:02:14;33.20;64.90
19039;DHT22;9652;49.014;12.052;2022-07-23T15:04:41;33.20;62.90
19039;DHT22;9652;49.014;12.052;2022-07-23T15:07:09;33.10;61.60
19039;DHT22;9652;49.014;12.052;2022-07-23T15:09:36;33.10;61.10
19039;DHT22;9652;49.014;12.052;2022-07-23T15:12:04;33.10;61.00
19039;DHT22;9652;49.014;12.052;2022-07-23T15:14:31;33.20;61.00
19039;DHT22;9652;49.014;12.052;2022-07-23T15:16:58;33.30;59.50
19039;DHT22;9652;49.014;12.052;2022-07-23T15:19:25;33.50;58.80
19039;DHT22;9652;49.014;12.052;2022-07-23T15:21:52;33.80;58.60
19039;DHT22;9652;49.014;12.052;2022-07-23T15:24:21;34.10;57.30
19039;DHT22;9652;49.014;12.052;2022-07-23T15:26:48;34.40;57.20
19039;DHT22;9652;49.014;12.052;2022-07-23T15:29:15;34.80;56.80
19039;DHT22;9652;49.014;12.052;2022-07-23T15:31:42;35.20;55.20
19039;DHT22;9652;49.014;12.052;2022-07-23T15:34:09;35.60;53.60
19039;DHT22;9652;49.014;12.052;2022-07-23T15:36:36;35.70;51.60
19039;DHT22;9652;49.014;12.052;2022-07-23T15:39:03;35.80;50.60
19039;DHT22;9652;49.014;12.052;2022-07-23T15:41:32;35.70;50.10
19039;DHT22;9652;49.014;12.052;2022-07-23T15:43:59;35.70;49.50
19039;DHT22;9652;49.014;12.052;2022-07-23T15:46:27;35.60;49.10